createdAt,value
2018-06-16T00:03:59.685Z,82.40
2018-06-16T00:06:28.732Z,82.40
2018-06-16T00:08:57.798Z,82.50
2018-06-16T00:11:27.290Z,82.60
2018-06-16T00:13:56.282Z,82.70
2018-06-16T00:16:25.296Z,83.00
2018-06-16T00:18:54.290Z,83.00
2018-06-16T00:21:23.246Z,83.00
2018-06-16T00:23:52.242Z,83.00
2018-06-16T00:26:21.189Z,83.00
2018-06-16T00:28:50.186Z,82.90
2018-06-16T00:31:19.204Z,83.00
2018-06-16T00:33:48.492Z,82.90
2018-06-16T00:36:18.630Z,83.00
2018-06-16T00:38:47.856Z,83.30
2018-06-16T00:41:17.130Z,83.50
2018-06-16T00:43:46.427Z,83.60
2018-06-16T00:46:15.711Z,83.60
2018-06-16T00:48:44.973Z,83.70
2018-06-16T00:51:14.189Z,83.70
2018-06-16T00:53:44.352Z,83.90
2018-06-16T00:56:13.628Z,83.90
2018-06-16T00:58:42.875Z,84.10
2018-06-16T01:01:12.092Z,84.20
2018-06-16T01:03:41.404Z,84.20
2018-06-16T01:06:10.650Z,84.30
2018-06-16T01:08:40.529Z,84.30
2018-06-16T01:11:09.767Z,84.50
2018-06-16T01:13:39.104Z,84.50
2018-06-16T01:16:08.348Z,85.30
2018-06-16T01:18:37.607Z,84.70
2018-06-16T01:21:07.163Z,84.80
2018-06-16T01:23:36.407Z,84.80
2018-06-16T01:26:05.645Z,84.90
2018-06-16T01:28:34.935Z,84.80
2018-06-16T01:31:04.160Z,85.00
2018-06-16T01:33:33.392Z,85.10
2018-06-16T01:36:02.599Z,85.10
2018-06-16T01:38:33.607Z,85.20
2018-06-16T01:41:02.832Z,85.30
2018-06-16T01:43:32.111Z,85.30
2018-06-16T01:46:01.312Z,85.40
2018-06-16T01:48:30.682Z,85.50
2018-06-16T01:50:59.979Z,85.70
2018-06-16T01:53:29.275Z,85.70
2018-06-16T01:55:58.508Z,85.80
2018-06-16T01:58:27.717Z,85.90
2018-06-16T02:00:56.993Z,85.60
2018-06-16T02:03:26.360Z,85.90
2018-06-16T02:05:55.642Z,86.00
2018-06-16T02:08:24.948Z,86.20
2018-06-16T02:10:54.136Z,86.30
2018-06-16T02:13:23.379Z,86.30
2018-06-16T02:15:52.636Z,86.40
2018-06-16T02:18:23.239Z,86.40
2018-06-16T02:20:52.527Z,86.60
2018-06-16T02:23:21.809Z,86.80
2018-06-16T02:25:51.194Z,87.60
2018-06-16T02:28:21.308Z,86.80
2018-06-16T02:30:50.547Z,86.80
2018-06-16T02:33:19.718Z,86.70
2018-06-16T02:35:48.984Z,86.70
2018-06-16T02:38:18.196Z,86.80
2018-06-16T02:40:47.952Z,86.80
2018-06-16T02:43:17.420Z,86.90
2018-06-16T02:45:46.718Z,87.00
2018-06-16T02:48:15.988Z,87.10
2018-06-16T02:50:45.622Z,87.20
2018-06-16T02:53:14.907Z,87.40
2018-06-16T02:55:44.299Z,87.50
2018-06-16T02:58:13.570Z,87.50
2018-06-16T03:00:43.331Z,87.50
2018-06-16T03:03:12.626Z,87.60
2018-06-16T03:05:41.879Z,87.50
2018-06-16T03:08:11.204Z,87.60
2018-06-16T03:10:41.294Z,87.70
2018-06-16T03:13:10.475Z,87.90
2018-06-16T03:15:39.766Z,87.90
2018-06-16T03:18:09.020Z,87.90
2018-06-16T03:20:38.334Z,88.00
2018-06-16T03:23:07.649Z,88.00
2018-06-16T03:25:36.956Z,88.90
2018-06-16T03:28:06.242Z,87.90
2018-06-16T03:30:35.504Z,87.90
2018-06-16T03:33:04.692Z,87.90
2018-06-16T03:35:33.988Z,88.00
2018-06-16T03:38:03.207Z,88.00
2018-06-16T03:40:32.467Z,88.60
2018-06-16T03:43:01.614Z,88.30
2018-06-16T03:45:30.909Z,88.30
2018-06-16T03:48:00.132Z,88.40
2018-06-16T03:50:29.811Z,88.40
2018-06-16T03:52:59.084Z,88.50
2018-06-16T03:55:28.315Z,88.60
2018-06-16T03:57:57.516Z,89.20
2018-06-16T04:00:26.809Z,88.70
2018-06-16T04:02:56.087Z,88.90
2018-06-16T04:07:54.652Z,89.10
2018-06-16T04:10:23.963Z,89.20
2018-06-16T04:12:53.188Z,89.10
2018-06-16T04:15:22.447Z,89.20
2018-06-16T04:17:51.626Z,89.30
2018-06-16T04:20:20.871Z,89.30
2018-06-16T04:22:50.104Z,89.40
2018-06-16T04:25:19.347Z,89.40
2018-06-16T04:27:49.687Z,89.50
2018-06-16T04:30:18.696Z,89.50
2018-06-16T04:32:48.282Z,89.70
2018-06-16T04:35:19.389Z,89.80
2018-06-16T04:37:48.362Z,89.80
2018-06-16T04:40:17.398Z,89.80
2018-06-16T04:42:46.363Z,90.00
2018-06-16T04:45:15.341Z,90.00
2018-06-16T04:47:45.553Z,90.00
2018-06-16T04:50:14.606Z,90.30
2018-06-16T04:52:43.619Z,90.00
2018-06-16T04:55:13.776Z,89.90
2018-06-16T04:57:43.064Z,89.90
2018-06-16T05:00:12.348Z,90.00
2018-06-16T05:02:41.644Z,90.00
2018-06-16T05:05:10.836Z,90.00
2018-06-16T05:07:40.112Z,90.00
2018-06-16T05:10:09.587Z,90.00
2018-06-16T05:12:38.987Z,90.00
2018-06-16T05:15:08.911Z,90.00
2018-06-16T05:17:38.240Z,90.40
2018-06-16T05:20:07.573Z,90.10
2018-06-16T05:22:36.880Z,90.10
2018-06-16T05:25:07.199Z,90.10
2018-06-16T05:30:05.308Z,90.10
2018-06-16T05:32:34.528Z,90.10
2018-06-16T05:35:04.423Z,90.10
2018-06-16T05:37:33.680Z,90.10
2018-06-16T05:40:02.969Z,90.00
2018-06-16T05:42:32.212Z,90.00
2018-06-16T05:45:01.491Z,89.80
2018-06-16T05:47:30.756Z,89.20
2018-06-16T05:49:59.986Z,88.80
2018-06-16T05:52:29.203Z,88.30
2018-06-16T05:54:58.418Z,87.60
2018-06-16T05:57:27.756Z,87.00
2018-06-16T05:59:56.987Z,87.10
2018-06-16T06:02:26.223Z,85.90
2018-06-16T06:04:55.480Z,85.40
2018-06-16T06:07:25.587Z,84.90
2018-06-16T06:09:55.827Z,83.90
2018-06-16T06:12:25.192Z,83.90
2018-06-16T06:14:54.634Z,83.10
2018-06-16T06:17:23.831Z,82.80
2018-06-16T06:22:58.248Z,81.70
2018-06-16T06:25:27.487Z,81.20
2018-06-16T06:27:57.345Z,80.70
2018-06-16T06:30:26.824Z,80.40
2018-06-16T06:32:55.817Z,79.90
2018-06-16T06:35:24.781Z,79.50
2018-06-16T06:37:53.962Z,78.90
2018-06-16T06:40:22.926Z,78.70
2018-06-16T06:42:51.973Z,78.20
2018-06-16T06:45:20.935Z,77.50
2018-06-16T06:47:49.942Z,77.10
2018-06-16T06:50:18.926Z,76.80
2018-06-16T06:52:47.960Z,76.30
2018-06-16T06:55:16.935Z,75.90
2018-06-16T06:57:45.934Z,75.40
2018-06-16T07:00:14.907Z,74.90
2018-06-16T07:02:43.901Z,75.30
2018-06-16T07:08:08.580Z,73.30
2018-06-16T07:10:39.319Z,72.60
2018-06-16T07:13:08.474Z,72.40
2018-06-16T07:15:37.458Z,72.10
2018-06-16T07:18:06.451Z,71.60
2018-06-16T07:20:35.435Z,70.90
2018-06-16T07:23:04.429Z,70.40
2018-06-16T07:25:33.449Z,70.40
2018-06-16T07:28:02.456Z,69.70
2018-06-16T07:30:31.628Z,68.60
2018-06-16T07:33:00.674Z,67.90
2018-06-16T07:35:29.610Z,68.10
2018-06-16T07:37:58.598Z,66.80
2018-06-16T07:40:27.552Z,66.60
2018-06-16T07:42:56.546Z,65.50
2018-06-16T07:45:26.569Z,65.60
2018-06-16T07:47:55.763Z,65.70
2018-06-16T07:50:25.600Z,65.70
2018-06-16T07:52:54.859Z,64.80
2018-06-16T07:55:23.831Z,65.00
2018-06-16T07:57:52.818Z,63.70
2018-06-16T08:00:21.767Z,63.20
2018-06-16T08:05:56.555Z,63.40
2018-06-16T08:08:26.095Z,62.80
2018-06-16T08:10:55.056Z,62.00
2018-06-16T08:13:24.070Z,60.90
2018-06-16T08:15:53.023Z,60.40
2018-06-16T08:18:22.041Z,60.10
2018-06-16T08:20:51.011Z,59.80
2018-06-16T08:23:20.044Z,59.50
2018-06-16T08:25:49.035Z,59.00
2018-06-16T08:28:18.042Z,58.90
2018-06-16T08:30:47.003Z,59.10
2018-06-16T08:33:16.019Z,58.60
2018-06-16T08:35:45.291Z,58.10
2018-06-16T08:38:14.337Z,57.50
2018-06-16T08:40:43.326Z,56.90
2018-06-16T08:43:12.355Z,56.20
2018-06-16T08:45:41.351Z,55.80
2018-06-16T08:48:10.342Z,55.50
2018-06-16T08:50:39.329Z,54.80
2018-06-16T08:53:09.227Z,53.70
2018-06-16T08:55:38.695Z,53.10
2018-06-16T08:58:07.555Z,52.60
2018-06-16T09:00:36.503Z,52.30
2018-06-16T09:06:09.931Z,51.80
2018-06-16T09:08:39.120Z,51.90
2018-06-16T09:11:08.367Z,51.50
2018-06-16T09:13:37.663Z,51.40
2018-06-16T09:16:06.944Z,51.10
2018-06-16T09:18:36.254Z,51.10
2018-06-16T09:21:05.784Z,51.00
2018-06-16T09:26:38.252Z,50.30
2018-06-16T09:29:07.487Z,50.20
2018-06-16T09:31:37.559Z,50.50
2018-06-16T09:34:06.890Z,50.20
2018-06-16T09:36:35.906Z,49.40
2018-06-16T09:39:07.668Z,48.40
2018-06-16T09:41:36.617Z,47.50
2018-06-16T09:44:05.727Z,47.40
2018-06-16T09:46:34.757Z,47.30
2018-06-16T09:49:03.746Z,47.10
2018-06-16T09:51:32.816Z,46.70
2018-06-16T09:54:01.901Z,47.10
2018-06-16T09:56:30.858Z,46.30
2018-06-16T09:58:59.898Z,46.40
2018-06-16T10:01:28.967Z,46.00
2018-06-16T10:03:58.049Z,45.40
2018-06-16T10:06:27.312Z,45.20
2018-06-16T10:08:56.564Z,44.40
2018-06-16T10:14:37.514Z,45.00
2018-06-16T10:17:06.510Z,45.10
2018-06-16T10:19:35.487Z,45.00
2018-06-16T10:24:32.991Z,44.90
2018-06-16T10:27:01.963Z,45.10
2018-06-16T10:29:31.273Z,45.70
2018-06-16T10:32:00.290Z,46.30
2018-06-16T10:34:29.286Z,46.40
2018-06-16T10:36:58.246Z,46.70
2018-06-16T10:39:27.230Z,47.30
2018-06-16T10:41:56.202Z,47.20
2018-06-16T10:44:25.178Z,47.20
2018-06-16T10:46:54.133Z,47.00
2018-06-16T10:49:23.134Z,46.90
2018-06-16T10:51:52.162Z,46.90
2018-06-16T10:54:21.145Z,46.80
2018-06-16T10:56:50.095Z,46.70
2018-06-16T10:59:19.075Z,46.70
2018-06-16T11:04:16.606Z,46.90
2018-06-16T11:09:14.138Z,46.60
2018-06-16T11:11:43.130Z,46.70
2018-06-16T11:14:12.127Z,46.90
2018-06-16T11:16:41.329Z,46.40
2018-06-16T11:19:10.358Z,46.00
2018-06-16T11:21:39.299Z,45.50
2018-06-16T11:24:08.261Z,45.40
2018-06-16T11:26:37.273Z,45.10
2018-06-16T11:29:06.284Z,45.40
2018-06-16T11:31:35.290Z,45.60
2018-06-16T11:34:04.291Z,45.80
2018-06-16T11:36:33.338Z,46.20
2018-06-16T11:39:02.426Z,46.20
2018-06-16T11:41:31.406Z,45.70
2018-06-16T11:44:00.382Z,45.40
2018-06-16T11:46:29.371Z,45.40
2018-06-16T11:48:58.999Z,45.20
2018-06-16T11:51:27.991Z,45.30
2018-06-16T11:53:56.953Z,44.90
2018-06-16T11:56:26.007Z,44.80
2018-06-16T11:58:55.036Z,44.80
2018-06-16T12:01:24.042Z,44.70
2018-06-16T12:03:53.119Z,45.60
2018-06-16T12:06:22.120Z,44.70
2018-06-16T12:08:51.075Z,44.30
2018-06-16T12:11:20.097Z,44.30
2018-06-16T12:13:49.151Z,44.10
2018-06-16T12:16:18.215Z,44.00
2018-06-16T12:18:47.282Z,43.90
2018-06-16T12:21:16.328Z,43.70
2018-06-16T12:23:45.792Z,43.60
2018-06-16T12:28:43.812Z,43.10
2018-06-16T12:31:13.117Z,42.80
2018-06-16T12:33:42.412Z,42.50
2018-06-16T12:36:11.652Z,42.70
2018-06-16T12:38:40.949Z,43.10
2018-06-16T12:41:10.160Z,43.40
2018-06-16T12:43:39.436Z,43.40
2018-06-16T12:46:08.768Z,43.50
2018-06-16T12:48:38.067Z,43.20
2018-06-16T12:51:07.203Z,43.00
2018-06-16T12:53:36.264Z,43.40
2018-06-16T12:56:05.563Z,44.00
2018-06-16T12:58:34.795Z,44.30
2018-06-16T13:01:04.677Z,44.70
2018-06-16T13:03:33.895Z,45.40
2018-06-16T13:06:03.137Z,46.00
2018-06-16T13:08:32.095Z,46.40
2018-06-16T13:11:01.081Z,46.20
2018-06-16T13:13:30.147Z,45.40
2018-06-16T13:15:59.145Z,45.20
2018-06-16T13:18:29.519Z,45.20
2018-06-16T13:20:58.902Z,45.00
2018-06-16T13:23:27.876Z,44.50
2018-06-16T13:25:56.867Z,43.80
2018-06-16T13:28:25.871Z,42.90
2018-06-16T13:30:54.871Z,43.40
2018-06-16T13:33:23.882Z,43.40
2018-06-16T13:35:52.843Z,43.70
2018-06-16T13:38:21.854Z,44.20
2018-06-16T13:40:50.798Z,44.00
2018-06-16T13:43:19.802Z,43.90
2018-06-16T13:45:48.758Z,44.00
2018-06-16T13:48:17.796Z,44.00
2018-06-16T13:50:46.845Z,43.60
2018-06-16T13:53:15.880Z,43.20
2018-06-16T13:55:44.842Z,43.10
2018-06-16T13:58:13.874Z,43.60
2018-06-16T14:00:46.092Z,43.80
2018-06-16T14:03:15.096Z,43.90
2018-06-16T14:05:44.070Z,43.50
2018-06-16T14:08:13.054Z,43.30
2018-06-16T14:10:43.378Z,42.90
2018-06-16T14:13:12.427Z,42.50
2018-06-16T14:15:41.378Z,42.30
2018-06-16T14:18:10.363Z,42.50
2018-06-16T14:20:39.322Z,43.20
2018-06-16T14:23:08.374Z,43.50
2018-06-16T14:25:37.369Z,43.50
2018-06-16T14:28:06.359Z,43.90
2018-06-16T14:30:35.344Z,44.10
2018-06-16T14:33:04.421Z,43.90
2018-06-16T14:35:33.339Z,43.70
2018-06-16T14:38:02.643Z,43.90
2018-06-16T14:40:31.657Z,44.40
2018-06-16T14:43:00.662Z,45.20
2018-06-16T14:45:29.640Z,44.70
2018-06-16T14:47:58.667Z,44.70
2018-06-16T14:50:27.926Z,44.60
2018-06-16T14:52:56.955Z,44.40
2018-06-16T14:55:25.934Z,44.40
2018-06-16T14:57:54.950Z,45.20
2018-06-16T15:00:24.118Z,44.50
2018-06-16T15:05:21.631Z,45.60
2018-06-16T15:07:50.676Z,46.20
2018-06-16T15:10:19.638Z,46.20
2018-06-16T15:12:48.650Z,45.90
2018-06-16T15:15:17.606Z,45.50
2018-06-16T15:17:46.639Z,46.00
2018-06-16T15:20:15.599Z,46.10
2018-06-16T15:22:44.598Z,46.70
2018-06-16T15:25:13.603Z,47.70
2018-06-16T15:27:42.584Z,47.90
2018-06-16T15:30:11.555Z,47.10
2018-06-16T15:32:40.578Z,47.00
2018-06-16T15:37:38.101Z,47.30
2018-06-16T15:40:07.102Z,46.80
2018-06-16T15:42:36.098Z,46.70
2018-06-16T15:45:05.124Z,47.00
2018-06-16T15:47:34.122Z,47.00
2018-06-16T15:50:03.155Z,46.90
2018-06-16T15:52:32.177Z,46.90
2018-06-16T15:55:01.480Z,47.00
2018-06-16T15:57:30.498Z,47.00
2018-06-16T15:59:59.506Z,46.70
2018-06-16T16:02:28.455Z,47.10
2018-06-16T16:04:57.510Z,47.30
2018-06-16T16:07:26.867Z,47.00
2018-06-16T16:09:55.914Z,47.30
2018-06-16T16:12:24.891Z,48.30
2018-06-16T16:14:54.322Z,48.70
2018-06-16T16:17:23.322Z,48.90
2018-06-16T16:19:52.338Z,49.10
2018-06-16T16:22:21.651Z,49.60
2018-06-16T16:24:50.702Z,49.80
2018-06-16T16:27:19.735Z,49.80
2018-06-16T16:29:48.929Z,50.40
2018-06-16T16:32:18.119Z,51.10
2018-06-16T16:34:47.448Z,51.20
2018-06-16T16:37:16.779Z,51.40
2018-06-16T16:39:46.161Z,51.50
2018-06-16T16:42:15.367Z,51.10
2018-06-16T16:44:44.612Z,51.30
2018-06-16T16:47:13.925Z,51.60
2018-06-16T16:49:43.216Z,51.80
2018-06-16T16:52:12.439Z,51.80
2018-06-16T16:54:41.756Z,51.90
2018-06-16T16:57:11.036Z,52.00
2018-06-16T16:59:40.702Z,52.30
2018-06-16T17:02:09.957Z,52.90
2018-06-16T17:07:19.748Z,52.80
2018-06-16T17:09:48.755Z,52.60
2018-06-16T17:12:17.751Z,52.50
2018-06-16T17:14:46.798Z,52.20
2018-06-16T17:17:15.783Z,51.70
2018-06-16T17:19:44.764Z,51.60
2018-06-16T17:24:42.351Z,52.10
2018-06-16T17:27:11.398Z,52.40
2018-06-16T17:29:40.449Z,52.70
2018-06-16T17:32:09.444Z,52.60
2018-06-16T17:34:39.276Z,52.60
2018-06-16T17:37:08.559Z,52.70
2018-06-16T17:39:37.836Z,52.90
2018-06-16T17:42:07.373Z,52.90
2018-06-16T17:44:37.019Z,52.90
2018-06-16T17:47:06.087Z,53.10
2018-06-16T17:49:35.080Z,53.60
2018-06-16T17:52:04.066Z,53.50
2018-06-16T17:54:33.079Z,53.80
2018-06-16T17:57:02.043Z,53.20
2018-06-16T17:59:31.034Z,53.70
2018-06-16T18:01:59.990Z,53.50
2018-06-16T18:04:29.394Z,54.00
2018-06-16T18:06:58.373Z,54.30
2018-06-16T18:09:27.604Z,54.40
2018-06-16T18:11:57.101Z,54.40
2018-06-16T18:14:26.338Z,54.40
2018-06-16T18:16:55.631Z,54.60
2018-06-16T18:19:24.903Z,54.80
2018-06-16T18:21:54.405Z,55.00
2018-06-16T18:24:23.921Z,56.10
2018-06-16T18:26:53.199Z,56.40
2018-06-16T18:29:23.029Z,56.80
2018-06-16T18:31:57.772Z,56.50
2018-06-16T18:34:27.056Z,56.80
2018-06-16T18:36:56.288Z,57.00
2018-06-16T18:39:41.344Z,57.30
2018-06-16T18:42:11.121Z,57.40
2018-06-16T18:44:41.372Z,57.50
2018-06-16T18:47:10.363Z,57.70
2018-06-16T18:49:39.393Z,57.70
2018-06-16T18:52:08.371Z,57.70
2018-06-16T18:54:37.398Z,57.70
2018-06-16T18:57:06.390Z,58.00
2018-06-16T18:59:35.395Z,58.90
2018-06-16T19:02:04.362Z,59.20
2018-06-16T19:04:33.354Z,59.30
2018-06-16T19:07:02.375Z,59.30
2018-06-16T19:09:32.599Z,59.20
2018-06-16T19:12:01.633Z,59.20
2018-06-16T19:14:30.746Z,59.20
2018-06-16T19:16:59.755Z,60.30
2018-06-16T19:19:28.710Z,59.50
2018-06-16T19:21:57.723Z,60.30
2018-06-16T19:24:26.731Z,60.80
2018-06-16T19:26:55.730Z,61.50
2018-06-16T19:29:24.722Z,62.10
2018-06-16T19:31:53.729Z,62.60
2018-06-16T19:34:22.686Z,62.40
2018-06-16T19:36:51.682Z,62.20
2018-06-16T19:39:20.682Z,62.00
2018-06-16T19:41:49.707Z,61.40
2018-06-16T19:44:18.659Z,61.70
2018-06-16T19:49:16.147Z,63.00
2018-06-16T19:51:45.186Z,62.90
2018-06-16T19:54:14.135Z,62.40
2018-06-16T19:56:43.144Z,62.30
2018-06-16T19:59:12.103Z,62.70
2018-06-16T20:01:41.092Z,62.80
2018-06-16T20:04:10.239Z,63.30
2018-06-16T20:06:39.553Z,63.70
2018-06-16T20:09:09.049Z,63.70
2018-06-16T20:11:38.309Z,63.50
2018-06-16T20:14:07.741Z,63.60
2018-06-16T20:16:37.381Z,64.20
2018-06-16T20:19:06.692Z,65.20
2018-06-16T20:21:35.921Z,65.80
2018-06-16T20:27:04.055Z,67.10
2018-06-16T20:29:33.088Z,67.00
2018-06-16T20:32:02.109Z,67.90
2018-06-16T20:34:31.138Z,68.30
2018-06-16T20:37:00.146Z,68.20
2018-06-16T20:39:29.110Z,66.90
2018-06-16T20:41:58.098Z,66.90
2018-06-16T20:44:27.052Z,66.90
2018-06-16T20:46:56.078Z,66.80
2018-06-16T20:49:25.031Z,66.80
2018-06-16T20:51:54.058Z,66.80
2018-06-16T20:54:23.044Z,66.70
2018-06-16T20:56:52.080Z,66.70
2018-06-16T20:59:21.167Z,67.80
2018-06-16T21:01:50.159Z,68.30
2018-06-16T21:04:19.120Z,68.30
2018-06-16T21:06:48.110Z,68.10
2018-06-16T21:09:17.075Z,68.30
2018-06-16T21:11:46.059Z,68.10
2018-06-16T21:14:15.028Z,68.30
2018-06-16T21:16:44.021Z,68.80
2018-06-16T21:19:12.971Z,69.60
2018-06-16T21:21:41.958Z,70.10
2018-06-16T21:24:10.968Z,70.70
2018-06-16T21:26:39.967Z,70.90
2018-06-16T21:29:08.981Z,70.80
2018-06-16T21:31:38.087Z,70.40
2018-06-16T21:34:07.956Z,70.80
2018-06-16T21:36:37.632Z,70.70
2018-06-16T21:39:08.001Z,71.40
2018-06-16T21:41:37.050Z,70.80
2018-06-16T21:44:06.032Z,71.30
2018-06-16T21:46:35.336Z,71.80
2018-06-16T21:49:04.571Z,71.70
2018-06-16T21:51:33.761Z,71.80
2018-06-16T21:54:02.783Z,71.70
2018-06-16T21:56:31.747Z,71.90
2018-06-16T21:59:00.755Z,71.80
2018-06-16T22:01:33.771Z,71.80
2018-06-16T22:04:03.242Z,72.20
2018-06-16T22:06:32.352Z,72.60
2018-06-16T22:09:01.680Z,72.90
2018-06-16T22:13:59.269Z,72.60
2018-06-16T22:16:28.247Z,72.70
2018-06-16T22:18:57.300Z,72.90
2018-06-16T22:21:26.250Z,73.30
2018-06-16T22:23:55.386Z,73.60
2018-06-16T22:26:24.362Z,73.70
2018-06-16T22:28:53.361Z,73.90
2018-06-16T22:31:22.391Z,73.70
2018-06-16T22:33:51.453Z,73.60
2018-06-16T22:36:20.446Z,73.40
2018-06-16T22:39:07.888Z,73.40
2018-06-16T22:41:37.254Z,73.40
2018-06-16T22:44:06.499Z,73.50
2018-06-16T22:46:35.487Z,73.70
2018-06-16T22:49:04.543Z,74.00
2018-06-16T22:51:33.511Z,74.20
2018-06-16T22:56:31.070Z,74.30
2018-06-16T22:59:00.270Z,74.20
2018-06-16T23:01:29.404Z,74.10
2018-06-16T23:03:58.405Z,74.20
2018-06-16T23:06:27.392Z,74.30
2018-06-16T23:08:56.436Z,74.60
2018-06-16T23:11:26.679Z,75.00
2018-06-16T23:13:55.715Z,75.00
2018-06-16T23:16:24.847Z,75.00
2018-06-16T23:18:53.863Z,75.20
2018-06-16T23:21:22.839Z,75.70
2018-06-16T23:23:51.890Z,76.00
2018-06-16T23:26:20.846Z,76.10
2018-06-16T23:28:49.868Z,76.10
2018-06-16T23:31:19.131Z,76.20
2018-06-16T23:33:48.167Z,76.30
2018-06-16T23:36:17.364Z,76.20
2018-06-16T23:38:46.603Z,76.00
2018-06-16T23:41:15.833Z,76.10
2018-06-16T23:43:44.835Z,76.30
2018-06-16T23:46:13.819Z,76.60
2018-06-16T23:48:42.823Z,76.70
2018-06-16T23:51:11.790Z,76.90
